createdAt,value
2023-03-12T00:02:15.180Z,45.57
2023-03-12T00:04:42.209Z,45.63
2023-03-12T00:07:09.324Z,45.53
2023-03-12T00:09:37.948Z,45.48
2023-03-12T00:12:05.928Z,45.75
2023-03-12T00:14:32.966Z,45.62
2023-03-12T00:16:59.995Z,45.87
2023-03-12T00:19:27.107Z,45.95
2023-03-12T00:21:54.102Z,46.03
2023-03-12T00:24:21.282Z,46.11
2023-03-12T00:26:48.389Z,46.02
2023-03-12T00:29:15.312Z,46.09
2023-03-12T00:31:42.248Z,46.13
2023-03-12T00:34:12.064Z,46.17
2023-03-12T00:36:40.966Z,46.11
2023-03-12T00:39:08.133Z,46.22
2023-03-12T00:41:35.257Z,46.35
2023-03-12T00:44:02.549Z,46.44
2023-03-12T00:46:29.880Z,46.31
2023-03-12T00:48:56.724Z,46.33
2023-03-12T00:51:23.591Z,46.21
2023-03-12T00:53:50.592Z,46.28
2023-03-12T00:56:17.473Z,46.53
2023-03-12T00:58:44.505Z,46.59
2023-03-12T01:01:11.536Z,46.51
2023-03-12T01:03:38.908Z,46.56
2023-03-12T01:06:06.957Z,46.60
2023-03-12T01:08:33.905Z,46.44
2023-03-12T01:11:00.987Z,46.58
2023-03-12T01:13:28.299Z,46.52
2023-03-12T01:15:55.263Z,46.61
2023-03-12T01:18:22.358Z,46.57
2023-03-12T01:20:49.845Z,46.86
2023-03-12T01:23:16.895Z,46.83
2023-03-12T01:25:43.753Z,46.58
2023-03-12T01:28:10.762Z,46.74
2023-03-12T01:30:37.650Z,46.90
2023-03-12T01:33:04.728Z,46.83
2023-03-12T01:35:35.569Z,46.76
2023-03-12T01:38:02.424Z,46.90
2023-03-12T01:40:29.564Z,46.78
2023-03-12T01:42:58.511Z,46.95
2023-03-12T01:45:59.471Z,46.71
2023-03-12T01:48:29.487Z,46.88
2023-03-12T01:50:56.429Z,47.17
2023-03-12T01:53:23.753Z,46.85
2023-03-12T01:55:51.418Z,46.86
2023-03-12T01:58:19.045Z,47.01
2023-03-12T02:00:46.270Z,47.01
2023-03-12T02:03:14.117Z,46.95
2023-03-12T02:05:51.294Z,47.15
2023-03-12T02:08:18.941Z,47.09
2023-03-12T02:10:46.867Z,47.01
2023-03-12T02:13:14.207Z,46.89
2023-03-12T02:15:41.147Z,47.14
2023-03-12T02:18:11.811Z,46.95
2023-03-12T02:20:56.541Z,47.04
2023-03-12T02:23:52.449Z,46.97
2023-03-12T02:26:21.974Z,47.08
2023-03-12T02:28:50.577Z,47.05
2023-03-12T02:31:24.234Z,46.99
2023-03-12T02:33:53.282Z,47.14
2023-03-12T02:36:20.857Z,47.27
2023-03-12T02:38:53.082Z,47.23
2023-03-12T02:41:32.056Z,47.02
2023-03-12T02:44:05.624Z,46.98
2023-03-12T02:46:45.746Z,46.85
2023-03-12T02:49:14.201Z,46.97
2023-03-12T02:51:42.996Z,46.94
2023-03-12T02:54:11.215Z,47.00
2023-03-12T02:56:38.449Z,47.18
2023-03-12T02:59:06.908Z,47.14
2023-03-12T03:01:37.009Z,47.21
2023-03-12T03:04:05.507Z,47.04
2023-03-12T03:06:32.804Z,47.08
2023-03-12T03:09:00.140Z,47.06
2023-03-12T03:11:27.221Z,47.47
2023-03-12T03:13:55.130Z,47.25
2023-03-12T03:16:22.738Z,47.18
2023-03-12T03:18:49.614Z,47.39
2023-03-12T03:21:18.173Z,47.30
2023-03-12T03:23:47.475Z,47.12
2023-03-12T03:26:15.951Z,47.25
2023-03-12T03:31:08.993Z,47.59
2023-03-12T03:33:37.805Z,47.53
2023-03-12T03:36:06.765Z,47.18
2023-03-12T03:38:35.075Z,47.45
2023-03-12T03:41:02.411Z,47.53
2023-03-12T03:43:29.303Z,47.67
2023-03-12T03:46:01.486Z,47.41
2023-03-12T03:48:28.484Z,47.37
2023-03-12T03:50:55.642Z,47.39
2023-03-12T03:53:22.522Z,47.44
2023-03-12T03:55:49.331Z,47.31
2023-03-12T03:58:16.656Z,47.57
2023-03-12T04:00:47.304Z,47.58
2023-03-12T04:03:14.302Z,47.67
2023-03-12T04:05:45.455Z,47.63
2023-03-12T04:08:12.770Z,47.46
2023-03-12T04:10:40.554Z,47.34
2023-03-12T04:13:07.666Z,47.46
2023-03-12T04:15:34.739Z,47.51
2023-03-12T04:18:01.612Z,47.66
2023-03-12T04:20:28.520Z,47.81
2023-03-12T04:22:55.367Z,47.63
2023-03-12T04:25:22.193Z,47.89
2023-03-12T04:27:49.038Z,47.76
2023-03-12T04:30:15.922Z,47.67
2023-03-12T04:32:42.822Z,47.77
2023-03-12T04:35:09.801Z,47.91
2023-03-12T04:37:36.643Z,47.74
2023-03-12T04:40:07.700Z,47.87
2023-03-12T04:42:35.807Z,47.80
2023-03-12T04:45:06.754Z,47.69
2023-03-12T04:47:34.233Z,47.73
2023-03-12T04:50:01.472Z,47.62
2023-03-12T04:52:28.587Z,47.80
2023-03-12T04:54:56.380Z,47.62
2023-03-12T04:57:23.206Z,47.78
2023-03-12T04:59:49.994Z,47.79
2023-03-12T05:02:16.827Z,47.91
2023-03-12T05:04:43.748Z,47.69
2023-03-12T05:07:10.685Z,47.67
2023-03-12T05:09:37.566Z,47.83
2023-03-12T05:12:04.640Z,47.95
2023-03-12T05:14:31.442Z,48.04
2023-03-12T05:16:58.237Z,48.01
2023-03-12T05:19:25.069Z,47.77
2023-03-12T05:21:52.229Z,48.03
2023-03-12T05:24:19.464Z,48.11
2023-03-12T05:26:46.379Z,48.00
2023-03-12T05:29:13.307Z,48.10
2023-03-12T05:31:40.251Z,48.06
2023-03-12T05:34:07.295Z,47.82
2023-03-12T05:36:34.661Z,47.69
2023-03-12T05:39:01.609Z,47.89
2023-03-12T05:41:29.968Z,47.82
2023-03-12T05:43:57.953Z,48.04
2023-03-12T05:46:26.129Z,47.89
2023-03-12T05:48:53.875Z,48.29
2023-03-12T05:51:21.396Z,48.34
2023-03-12T05:53:48.275Z,48.43
2023-03-12T05:56:17.492Z,48.10
2023-03-12T05:58:45.095Z,47.85
2023-03-12T06:01:21.026Z,48.10
2023-03-12T06:03:48.006Z,48.11
2023-03-12T06:06:15.055Z,48.00
2023-03-12T06:08:42.911Z,48.17
2023-03-12T06:11:10.350Z,48.39
2023-03-12T06:13:37.508Z,48.32
2023-03-12T06:16:15.744Z,48.25
2023-03-12T06:18:42.661Z,48.49
2023-03-12T06:21:09.481Z,48.21
2023-03-12T06:23:36.419Z,48.12
2023-03-12T06:26:03.479Z,48.12
2023-03-12T06:28:30.690Z,47.90
2023-03-12T06:30:57.580Z,48.35
2023-03-12T06:33:24.510Z,47.96
2023-03-12T06:35:58.060Z,48.09
2023-03-12T06:38:26.052Z,48.12
2023-03-12T06:40:57.410Z,48.20
2023-03-12T06:43:25.900Z,48.30
2023-03-12T06:45:55.019Z,49.10
2023-03-12T06:48:22.905Z,48.87
2023-03-12T06:50:50.216Z,49.10
2023-03-12T06:53:17.166Z,49.36
2023-03-12T06:55:45.344Z,49.37
2023-03-12T06:58:12.442Z,49.41
2023-03-12T07:00:39.679Z,49.84
2023-03-12T07:03:06.906Z,48.80
2023-03-12T07:05:33.749Z,48.22
2023-03-12T07:08:00.633Z,46.42
2023-03-12T07:10:30.218Z,47.56
2023-03-12T07:12:57.639Z,48.02
2023-03-12T07:15:24.755Z,48.48
2023-03-12T07:17:51.901Z,48.44
2023-03-12T07:20:18.985Z,48.51
2023-03-12T07:22:45.934Z,48.30
2023-03-12T07:25:12.906Z,48.36
2023-03-12T07:27:39.803Z,48.13
2023-03-12T07:30:07.340Z,48.33
2023-03-12T07:32:35.684Z,47.99
2023-03-12T07:35:04.171Z,48.16
2023-03-12T07:37:31.402Z,47.42
2023-03-12T07:39:58.475Z,48.22
2023-03-12T07:42:25.727Z,48.64
2023-03-12T07:44:52.875Z,48.85
2023-03-12T07:47:23.933Z,48.68
2023-03-12T07:49:51.485Z,48.21
2023-03-12T07:52:20.528Z,48.34
2023-03-12T07:54:47.968Z,48.26
2023-03-12T07:57:15.146Z,48.29
2023-03-12T07:59:42.173Z,47.80
2023-03-12T08:02:10.998Z,47.63
2023-03-12T08:04:38.034Z,47.32
2023-03-12T08:07:08.004Z,47.36
2023-03-12T08:09:36.148Z,47.32
2023-03-12T08:12:03.153Z,47.12
2023-03-12T08:14:32.020Z,47.22
2023-03-12T08:17:00.287Z,47.21
2023-03-12T08:19:27.958Z,46.91
2023-03-12T08:21:55.146Z,47.45
2023-03-12T08:24:22.631Z,47.38
2023-03-12T08:26:49.842Z,47.00
2023-03-12T08:29:17.831Z,46.81
2023-03-12T08:32:01.473Z,46.52
2023-03-12T08:34:30.710Z,46.26
2023-03-12T08:36:57.699Z,46.49
2023-03-12T08:39:24.565Z,46.25
2023-03-12T08:41:55.630Z,45.85
2023-03-12T08:44:26.043Z,45.62
2023-03-12T08:46:53.502Z,45.90
2023-03-12T08:49:21.654Z,45.27
2023-03-12T08:51:49.277Z,45.27
2023-03-12T08:54:16.333Z,45.02
2023-03-12T08:56:44.108Z,44.96
2023-03-12T08:59:12.010Z,44.71
2023-03-12T09:01:43.695Z,43.74
2023-03-12T09:04:11.635Z,44.07
2023-03-12T09:06:38.836Z,44.29
2023-03-12T09:09:06.135Z,44.27
2023-03-12T09:11:34.144Z,44.58
2023-03-12T09:14:39.522Z,44.88
2023-03-12T09:16:49.779Z,44.45
2023-03-12T09:19:17.583Z,44.66
2023-03-12T09:21:44.854Z,44.56
2023-03-12T09:24:12.209Z,44.13
2023-03-12T09:26:39.342Z,44.27
2023-03-12T09:29:06.417Z,44.15
2023-03-12T09:31:34.928Z,43.98
2023-03-12T09:34:02.330Z,43.71
2023-03-12T09:36:29.562Z,43.73
2023-03-12T09:38:56.640Z,43.65
2023-03-12T09:41:30.506Z,43.66
2023-03-12T09:44:02.604Z,43.71
2023-03-12T09:47:02.597Z,43.47
2023-03-12T09:49:42.288Z,43.51
2023-03-12T09:52:39.959Z,42.67
2023-03-12T09:55:20.308Z,42.96
2023-03-12T09:57:51.054Z,43.25
2023-03-12T10:00:22.322Z,42.73
2023-03-12T10:03:07.949Z,42.95
2023-03-12T10:05:43.557Z,42.88
2023-03-12T10:08:24.392Z,42.93
2023-03-12T10:11:24.061Z,42.96
2023-03-12T10:13:57.190Z,42.99
2023-03-12T10:16:47.920Z,43.01
2023-03-12T10:19:50.793Z,43.98
2023-03-12T10:22:33.355Z,43.95
2023-03-12T10:25:30.666Z,43.47
2023-03-12T10:28:20.120Z,43.75
2023-03-12T10:30:54.761Z,43.94
2023-03-12T10:33:26.506Z,43.61
2023-03-12T10:35:55.046Z,43.55
2023-03-12T10:38:30.332Z,43.34
2023-03-12T10:40:57.228Z,43.46
2023-03-12T10:43:24.539Z,43.43
2023-03-12T10:46:30.439Z,43.05
2023-03-12T10:49:37.767Z,42.53
2023-03-12T10:52:22.093Z,42.80
2023-03-12T10:54:51.829Z,42.58
2023-03-12T10:57:21.226Z,42.80
2023-03-12T10:59:49.106Z,42.76
2023-03-12T11:02:43.569Z,43.08
2023-03-12T11:05:23.986Z,43.25
2023-03-12T11:07:51.967Z,43.57
2023-03-12T11:10:25.550Z,43.37
2023-03-12T11:13:00.026Z,43.31
2023-03-12T11:15:57.242Z,43.42
2023-03-12T11:18:26.676Z,43.62
2023-03-12T11:21:12.445Z,43.79
2023-03-12T11:24:32.333Z,43.98
2023-03-12T11:27:21.402Z,44.10
2023-03-12T11:29:51.139Z,43.92
2023-03-12T11:32:28.992Z,43.92
2023-03-12T11:34:56.919Z,44.17
2023-03-12T11:37:30.118Z,44.01
2023-03-12T11:40:21.769Z,45.16
2023-03-12T11:42:51.483Z,45.93
2023-03-12T11:45:42.847Z,45.58
2023-03-12T11:48:28.268Z,45.26
2023-03-12T11:51:04.082Z,45.44
2023-03-12T11:53:48.999Z,45.35
2023-03-12T11:56:19.048Z,45.43
2023-03-12T11:59:34.384Z,45.36
2023-03-12T12:02:38.352Z,45.33
2023-03-12T12:05:29.642Z,45.33
2023-03-12T12:07:56.426Z,44.95
2023-03-12T12:10:36.147Z,44.88
2023-03-12T12:13:08.589Z,45.09
2023-03-12T12:15:55.397Z,45.08
2023-03-12T12:18:39.315Z,45.08
2023-03-12T12:21:15.286Z,44.75
2023-03-12T12:23:42.272Z,45.04
2023-03-12T12:26:41.554Z,44.73
2023-03-12T12:29:31.678Z,44.58
2023-03-12T12:32:01.925Z,45.09
2023-03-12T12:34:41.030Z,45.18
2023-03-12T12:37:20.118Z,45.29
2023-03-12T12:39:54.995Z,45.17
2023-03-12T12:42:28.312Z,45.02
2023-03-12T12:44:59.190Z,45.18
2023-03-12T12:47:40.957Z,44.93
2023-03-12T12:50:18.892Z,44.58
2023-03-12T12:52:52.799Z,44.71
2023-03-12T12:55:35.539Z,44.88
2023-03-12T12:58:45.685Z,44.81
2023-03-12T13:01:15.433Z,44.67
2023-03-12T13:03:43.820Z,44.56
2023-03-12T13:06:11.725Z,44.49
2023-03-12T13:08:44.214Z,44.81
2023-03-12T13:11:20.473Z,44.36
2023-03-12T13:14:04.080Z,44.37
2023-03-12T13:16:38.158Z,44.31
2023-03-12T13:19:14.479Z,44.31
2023-03-12T13:21:59.854Z,44.10
2023-03-12T13:24:30.978Z,44.18
2023-03-12T13:27:03.605Z,43.90
2023-03-12T13:29:31.610Z,43.84
2023-03-12T13:32:00.119Z,43.82
2023-03-12T13:34:28.280Z,43.99
2023-03-12T13:37:02.238Z,44.09
2023-03-12T13:39:29.303Z,44.36
2023-03-12T13:41:57.900Z,44.48
2023-03-12T13:44:40.656Z,44.30
2023-03-12T13:47:30.859Z,43.97
2023-03-12T13:50:04.132Z,43.71
2023-03-12T13:52:34.537Z,43.79
2023-03-12T13:55:03.345Z,43.71
2023-03-12T13:57:30.710Z,43.93
2023-03-12T13:59:58.873Z,43.74
2023-03-12T14:02:33.284Z,43.95
2023-03-12T14:05:10.880Z,43.56
2023-03-12T14:07:46.263Z,43.93
2023-03-12T14:10:31.545Z,43.79
2023-03-12T14:13:04.446Z,43.77
2023-03-12T14:15:43.511Z,43.52
2023-03-12T14:18:23.448Z,43.64
2023-03-12T14:20:56.655Z,43.53
2023-03-12T14:23:28.927Z,43.49
2023-03-12T14:26:03.552Z,43.61
2023-03-12T14:28:34.234Z,44.02
2023-03-12T14:31:15.251Z,43.99
2023-03-12T14:34:02.787Z,43.88
2023-03-12T14:36:56.698Z,44.25
2023-03-12T14:39:52.101Z,44.15
2023-03-12T14:42:26.277Z,44.08
2023-03-12T14:45:02.960Z,43.95
2023-03-12T14:47:29.993Z,44.15
2023-03-12T14:49:58.350Z,44.06
2023-03-12T14:52:29.857Z,44.23
2023-03-12T14:55:08.365Z,44.21
2023-03-12T14:57:35.478Z,43.91
2023-03-12T15:00:02.954Z,43.57
2023-03-12T15:02:32.223Z,43.93
2023-03-12T15:05:02.263Z,43.76
2023-03-12T15:07:39.813Z,43.59
2023-03-12T15:10:17.193Z,43.64
2023-03-12T15:12:46.358Z,44.04
2023-03-12T15:15:33.316Z,44.06
2023-03-12T15:18:00.312Z,43.98
2023-03-12T15:20:28.414Z,43.74
2023-03-12T15:22:56.129Z,43.88
2023-03-12T15:25:32.337Z,43.67
2023-03-12T15:28:05.161Z,44.05
2023-03-12T15:30:35.279Z,44.00
2023-03-12T15:33:06.770Z,43.93
2023-03-12T15:35:33.933Z,43.96
2023-03-12T15:38:02.542Z,43.95
2023-03-12T15:40:31.149Z,43.82
2023-03-12T15:43:03.522Z,43.86
2023-03-12T15:45:30.410Z,43.81
2023-03-12T15:47:57.820Z,43.57
2023-03-12T15:50:34.271Z,42.96
2023-03-12T15:53:26.113Z,43.27
2023-03-12T15:56:21.138Z,43.44
2023-03-12T15:58:58.944Z,43.35
2023-03-12T16:01:28.382Z,43.62
2023-03-12T16:03:55.999Z,43.53
2023-03-12T16:06:26.494Z,43.40
2023-03-12T16:09:04.210Z,43.67
2023-03-12T16:11:34.044Z,43.70
2023-03-12T16:14:20.633Z,43.95
2023-03-12T16:16:48.143Z,44.50
2023-03-12T16:19:17.677Z,44.10
2023-03-12T16:21:45.184Z,44.06
2023-03-12T16:24:12.270Z,43.82
2023-03-12T16:26:45.571Z,43.88
2023-03-12T16:29:16.362Z,43.91
2023-03-12T16:31:43.590Z,44.06
2023-03-12T16:34:12.462Z,43.74
2023-03-12T16:36:39.715Z,43.84
2023-03-12T16:39:06.778Z,43.61
2023-03-12T16:41:33.889Z,43.89
2023-03-12T16:44:01.599Z,43.45
2023-03-12T16:46:32.417Z,43.65
2023-03-12T16:48:59.712Z,43.79
2023-03-12T16:51:28.665Z,43.85
2023-03-12T16:54:08.435Z,43.61
2023-03-12T16:56:41.436Z,44.06
2023-03-12T16:59:17.397Z,44.45
2023-03-12T17:01:44.442Z,44.47
2023-03-12T17:04:12.097Z,44.74
2023-03-12T17:06:40.765Z,44.92
2023-03-12T17:09:09.084Z,45.02
2023-03-12T17:11:38.245Z,44.92
2023-03-12T17:14:18.666Z,45.04
2023-03-12T17:16:45.656Z,45.73
2023-03-12T17:19:12.638Z,46.09
2023-03-12T17:21:40.326Z,46.38
2023-03-12T17:24:07.789Z,46.34
2023-03-12T17:26:34.810Z,46.28
2023-03-12T17:29:01.784Z,46.19
2023-03-12T17:31:28.817Z,46.13
2023-03-12T17:33:55.932Z,45.92
2023-03-12T17:36:23.318Z,46.16
2023-03-12T17:38:51.051Z,46.20
2023-03-12T17:41:26.547Z,46.17
2023-03-12T17:43:55.250Z,46.52
2023-03-12T17:46:22.346Z,46.51
2023-03-12T17:48:49.299Z,46.71
2023-03-12T17:51:16.363Z,46.76
2023-03-12T17:53:43.333Z,46.61
2023-03-12T17:56:12.816Z,46.89
2023-03-12T17:58:40.120Z,47.13
2023-03-12T18:01:07.771Z,48.05
2023-03-12T18:03:34.735Z,47.71
2023-03-12T18:06:02.519Z,47.54
2023-03-12T18:08:29.661Z,47.38
2023-03-12T18:10:56.712Z,47.27
2023-03-12T18:13:23.689Z,46.85
2023-03-12T18:15:53.511Z,46.80
2023-03-12T18:18:21.446Z,46.92
2023-03-12T18:20:49.648Z,46.78
2023-03-12T18:23:17.247Z,47.04
2023-03-12T18:25:44.933Z,47.09
2023-03-12T18:28:12.612Z,46.68
2023-03-12T18:30:39.590Z,46.75
2023-03-12T18:33:06.666Z,46.70
2023-03-12T18:35:33.729Z,47.31
2023-03-12T18:38:00.998Z,47.20
2023-03-12T18:40:29.805Z,47.40
2023-03-12T18:43:03.777Z,47.36
2023-03-12T18:45:31.384Z,47.02
2023-03-12T18:47:58.323Z,47.31
2023-03-12T18:50:25.620Z,47.12
2023-03-12T18:52:52.615Z,47.15
2023-03-12T18:55:19.640Z,46.87
2023-03-12T18:57:48.034Z,47.22
2023-03-12T19:00:19.947Z,47.00
2023-03-12T19:02:48.456Z,46.74
2023-03-12T19:05:16.358Z,46.74
2023-03-12T19:07:43.609Z,46.79
2023-03-12T19:10:11.625Z,46.99
2023-03-12T19:12:50.864Z,46.82
2023-03-12T19:15:19.701Z,46.98
2023-03-12T19:17:46.564Z,47.20
2023-03-12T19:20:14.384Z,47.23
2023-03-12T19:22:41.643Z,47.43
2023-03-12T19:25:09.089Z,47.42
2023-03-12T19:27:36.190Z,48.10
2023-03-12T19:30:03.395Z,47.90
2023-03-12T19:32:42.228Z,47.86
2023-03-12T19:35:12.367Z,47.46
2023-03-12T19:37:39.713Z,47.42
2023-03-12T19:40:07.805Z,47.88
2023-03-12T19:42:36.665Z,48.16
2023-03-12T19:45:04.192Z,48.35
2023-03-12T19:47:33.453Z,48.08
2023-03-12T19:50:01.033Z,48.03
2023-03-12T19:52:28.298Z,47.85
2023-03-12T19:55:04.366Z,47.74
2023-03-12T19:57:33.467Z,47.77
2023-03-12T20:00:00.504Z,46.98
2023-03-12T20:02:27.876Z,46.62
2023-03-12T20:04:55.934Z,46.46
2023-03-12T20:07:23.236Z,46.59
2023-03-12T20:09:50.697Z,46.40
2023-03-12T20:12:18.168Z,46.48
2023-03-12T20:14:45.611Z,46.35
2023-03-12T20:17:13.783Z,46.13
2023-03-12T20:19:56.502Z,45.95
2023-03-12T20:22:26.063Z,45.96
2023-03-12T20:24:54.489Z,46.01
2023-03-12T20:27:21.820Z,45.84
2023-03-12T20:29:51.942Z,45.94
2023-03-12T20:32:19.841Z,46.16
2023-03-12T20:34:47.156Z,45.97
2023-03-12T20:37:14.832Z,46.04
2023-03-12T20:39:41.937Z,45.94
2023-03-12T20:42:09.178Z,46.17
2023-03-12T20:44:36.492Z,46.10
2023-03-12T20:47:03.517Z,46.14
2023-03-12T20:49:30.620Z,45.91
2023-03-12T20:51:59.396Z,46.18
2023-03-12T20:54:27.764Z,46.24
2023-03-12T20:56:54.832Z,46.16
2023-03-12T20:59:22.036Z,45.89
2023-03-12T21:01:49.086Z,46.19
2023-03-12T21:05:02.589Z,46.46
2023-03-12T21:07:30.130Z,46.43
2023-03-12T21:09:57.399Z,46.31
2023-03-12T21:12:44.897Z,46.59
2023-03-12T21:15:24.297Z,46.54
2023-03-12T21:17:52.754Z,46.19
2023-03-12T21:20:20.559Z,46.17
2023-03-12T21:22:48.106Z,46.69
2023-03-12T21:25:15.723Z,46.51
2023-03-12T21:27:50.480Z,46.26
2023-03-12T21:30:19.092Z,46.56
2023-03-12T21:32:46.621Z,46.43
2023-03-12T21:35:14.704Z,46.41
2023-03-12T21:37:41.789Z,46.34
2023-03-12T21:40:09.835Z,46.27
2023-03-12T21:42:38.274Z,46.29
2023-03-12T21:45:06.776Z,46.35
2023-03-12T21:47:37.227Z,46.47
2023-03-12T21:50:05.227Z,46.36
2023-03-12T21:52:34.793Z,46.24
2023-03-12T21:55:28.037Z,46.50
2023-03-12T21:58:00.828Z,46.84
2023-03-12T22:00:28.879Z,46.47
2023-03-12T22:02:58.332Z,46.50
2023-03-12T22:05:25.881Z,46.53
2023-03-12T22:07:53.103Z,46.72
2023-03-12T22:10:20.080Z,46.65
2023-03-12T22:12:47.159Z,46.64
2023-03-12T22:15:14.356Z,46.08
2023-03-12T22:17:41.574Z,46.16
2023-03-12T22:20:09.508Z,46.30
2023-03-12T22:22:36.874Z,46.33
2023-03-12T22:25:04.135Z,46.32
2023-03-12T22:27:31.675Z,46.51
2023-03-12T22:29:58.856Z,46.78
2023-03-12T22:32:26.080Z,46.80
2023-03-12T22:34:53.496Z,46.95
2023-03-12T22:37:21.502Z,47.08
2023-03-12T22:39:48.538Z,46.94
2023-03-12T22:42:15.473Z,47.17
2023-03-12T22:44:42.750Z,47.24
2023-03-12T22:47:09.998Z,47.19
2023-03-12T22:49:37.077Z,47.39
2023-03-12T22:52:04.268Z,47.47
2023-03-12T22:54:31.264Z,47.50
2023-03-12T22:56:58.393Z,47.65
2023-03-12T22:59:25.341Z,47.65
2023-03-12T23:01:53.025Z,47.70
2023-03-12T23:04:21.508Z,47.76
2023-03-12T23:06:48.613Z,47.91
2023-03-12T23:09:15.689Z,47.95
2023-03-12T23:11:42.547Z,48.07
2023-03-12T23:14:09.613Z,48.14
2023-03-12T23:16:36.662Z,48.07
2023-03-12T23:19:03.622Z,48.31
2023-03-12T23:21:32.986Z,48.34
2023-03-12T23:24:00.419Z,48.30
2023-03-12T23:26:29.503Z,48.35
2023-03-12T23:28:59.325Z,48.46
2023-03-12T23:31:30.482Z,48.53
2023-03-12T23:33:58.790Z,48.33
2023-03-12T23:36:26.208Z,48.58
2023-03-12T23:38:53.171Z,48.71
2023-03-12T23:41:26.069Z,48.61
2023-03-12T23:43:53.685Z,48.71
2023-03-12T23:46:21.469Z,48.76
2023-03-12T23:48:48.871Z,48.80
2023-03-12T23:51:24.840Z,48.95
2023-03-12T23:53:55.501Z,48.84
2023-03-12T23:56:24.976Z,48.94
2023-03-12T23:58:52.190Z,49.27
